Time;durP1;ratioP1;P1;durP2;ratioP2;P2;SDS_P1;SDS_P2;PMS_P1;PMS_P2;Temp;Humidity;BMP_temperature;BMP_pressure;BME280_temperature;BME280_humidity;BME280_pressure;Samples;Min_cycle;Max_cycle;Signal;HPM_P1;HPM_P2
2021/06/14 00:01:24;;;;;;;8.35;3.75;;;12.40;99.90;;;;;;5039695;28;20021;-75
2021/06/14 00:03:50;;;;;;;4.70;3.53;;;12.40;99.90;;;;;;5041713;28;20492;-74
2021/06/14 00:06:16;;;;;;;7.05;3.80;;;12.50;99.90;;;;;;5046338;28;20480;-72
2021/06/14 00:08:43;;;;;;;8.25;3.75;;;12.60;99.90;;;;;;5044033;28;20044;-73
2021/06/14 00:11:09;;;;;;;6.18;3.90;;;12.50;99.90;;;;;;5039205;28;20021;-75
2021/06/14 00:13:37;;;;;;;5.57;4.13;;;12.60;99.90;;;;;;5041398;28;20064;-75
2021/06/14 00:16:04;;;;;;;7.40;3.97;;;12.70;99.90;;;;;;5033222;28;20020;-76
2021/06/14 00:18:30;;;;;;;8.43;3.60;;;12.70;99.90;;;;;;5041089;28;20425;-75
2021/06/14 00:20:57;;;;;;;8.48;3.90;;;12.70;99.90;;;;;;5028207;28;20087;-74
2021/06/14 00:23:26;;;;;;;7.88;4.68;;;12.60;99.90;;;;;;5044517;28;20036;-75
2021/06/14 00:25:52;;;;;;;7.30;4.45;;;12.60;99.90;;;;;;5038944;28;20491;-75
2021/06/14 00:28:18;;;;;;;5.20;3.65;;;12.70;99.90;;;;;;5040567;28;20030;-74
2021/06/14 00:30:46;;;;;;;8.15;3.88;;;12.80;99.90;;;;;;5037937;28;20068;-75
2021/06/14 00:33:14;;;;;;;7.85;4.40;;;12.60;99.90;;;;;;5040199;28;20056;-74
2021/06/14 00:35:42;;;;;;;5.60;4.30;;;12.40;99.90;;;;;;5027881;28;20525;-75
2021/06/14 00:38:08;;;;;;;5.57;4.00;;;12.20;99.90;;;;;;5023986;28;20022;-74
2021/06/14 00:40:35;;;;;;;8.80;4.35;;;12.50;99.90;;;;;;5038420;28;20029;-76
2021/06/14 00:43:01;;;;;;;7.25;3.67;;;12.40;99.90;;;;;;5021417;28;20080;-75
2021/06/14 00:45:30;;;;;;;7.35;4.03;;;12.30;99.90;;;;;;5027729;28;20117;-75
2021/06/14 00:48:00;;;;;;;6.85;3.85;;;12.40;99.90;;;;;;5024866;28;20032;-75
2021/06/14 00:50:42;;;;;;;7.78;4.60;;;12.40;99.90;;;;;;5034205;28;20095;-75
2021/06/14 00:53:15;;;;;;;7.05;4.03;;;12.30;99.90;;;;;;5049241;28;20049;-75
2021/06/14 00:55:43;;;;;;;8.60;4.00;;;12.30;99.90;;;;;;5014205;28;20034;-74
2021/06/14 00:58:09;;;;;;;8.05;4.28;;;12.40;99.90;;;;;;5028002;28;20029;-77
2021/06/14 01:00:34;;;;;;;8.82;3.88;;;12.40;99.90;;;;;;5042650;28;20032;-77
2021/06/14 01:03:00;;;;;;;8.02;4.03;;;12.30;99.90;;;;;;5035758;28;20030;-78
2021/06/14 01:05:28;;;;;;;8.45;3.90;;;12.30;99.90;;;;;;5042688;28;20391;-76
2021/06/14 01:07:54;;;;;;;5.55;3.70;;;12.40;99.90;;;;;;5050852;28;20049;-77
2021/06/14 01:10:20;;;;;;;7.25;4.03;;;12.40;99.90;;;;;;5044362;28;20029;-78
2021/06/14 01:12:57;;;;;;;5.30;3.80;;;12.30;99.90;;;;;;5048876;28;20036;-77
2021/06/14 01:15:26;;;;;;;7.15;4.57;;;12.40;99.90;;;;;;5047559;28;20037;-77
2021/06/14 01:18:02;;;;;;;7.88;4.35;;;12.20;99.90;;;;;;5040819;28;20041;-77
2021/06/14 01:20:46;;;;;;;7.43;3.97;;;12.10;99.90;;;;;;5025396;28;20027;-77
2021/06/14 01:23:39;;;;;;;7.78;4.40;;;12.20;99.90;;;;;;5026017;28;20195;-76
2021/06/14 01:26:13;;;;;;;7.07;4.10;;;12.10;99.90;;;;;;5005948;28;20051;-77
2021/06/14 01:28:40;;;;;;;8.40;4.60;;;12.00;99.90;;;;;;5024024;28;20025;-77
2021/06/14 01:31:08;;;;;;;7.30;4.03;;;12.00;99.90;;;;;;5026349;28;20064;-77
2021/06/14 01:33:35;;;;;;;6.20;4.22;;;11.90;99.90;;;;;;5045237;28;20052;-77
2021/06/14 01:36:19;;;;;;;6.70;4.03;;;12.00;99.90;;;;;;5024711;28;20618;-77
2021/06/14 01:38:47;;;;;;;8.05;4.47;;;12.00;99.90;;;;;;5021963;28;20060;-75
2021/06/14 01:41:13;;;;;;;6.05;3.83;;;11.70;99.90;;;;;;5043621;28;20034;-75
2021/06/14 01:43:41;;;;;;;5.43;4.20;;;12.00;99.90;;;;;;5041415;28;20025;-74
2021/06/14 01:46:19;;;;;;;7.85;4.05;;;12.00;99.90;;;;;;5038810;28;20025;-76
2021/06/14 01:48:45;;;;;;;7.65;4.32;;;11.90;99.90;;;;;;5025005;28;20029;-74
2021/06/14 01:51:12;;;;;;;6.65;4.97;;;11.70;99.90;;;;;;5028681;28;20032;-74
2021/06/14 01:53:38;;;;;;;8.50;5.07;;;11.10;99.90;;;;;;5039683;28;20018;-74
2021/06/14 01:56:06;;;;;;;8.48;5.00;;;10.60;99.90;;;;;;5044417;28;20076;-74
2021/06/14 01:58:33;;;;;;;11.00;4.63;;;11.00;99.90;;;;;;5021306;28;20014;-74
2021/06/14 02:01:00;;;;;;;7.55;4.35;;;11.30;99.90;;;;;;5024883;28;20357;-74
2021/06/14 02:03:28;;;;;;;8.38;4.47;;;11.50;99.90;;;;;;5033367;28;20021;-74
2021/06/14 02:05:55;;;;;;;7.05;4.20;;;11.50;99.90;;;;;;5041824;28;20047;-74
2021/06/14 02:08:22;;;;;;;6.53;4.55;;;11.30;99.90;;;;;;5032624;28;20021;-74
2021/06/14 02:10:48;;;;;;;6.57;4.88;;;11.40;99.90;;;;;;5040940;28;20040;-74
2021/06/14 02:13:15;;;;;;;13.60;5.53;;;11.70;99.90;;;;;;5041392;28;20016;-74
2021/06/14 02:15:40;;;;;;;8.63;4.38;;;11.80;99.90;;;;;;5042821;28;20029;-75
2021/06/14 02:18:09;;;;;;;9.85;4.78;;;11.50;99.90;;;;;;5042879;28;20124;-75
2021/06/14 02:20:35;;;;;;;8.38;4.72;;;11.40;99.90;;;;;;5042629;28;20056;-75
2021/06/14 02:23:01;;;;;;;8.27;4.55;;;11.50;99.90;;;;;;5042795;28;20021;-75
2021/06/14 02:25:27;;;;;;;7.40;4.70;;;11.60;99.90;;;;;;5026247;28;20030;-75
2021/06/14 02:27:53;;;;;;;9.90;4.40;;;11.70;99.90;;;;;;5045183;28;20101;-73
2021/06/14 02:30:23;;;;;;;8.45;4.53;;;11.90;99.90;;;;;;5047377;28;20040;-74
2021/06/14 02:32:50;;;;;;;6.72;4.30;;;12.10;99.90;;;;;;5035850;28;20056;-74
2021/06/14 02:35:16;;;;;;;7.82;4.57;;;11.90;99.90;;;;;;5046952;28;20048;-75
2021/06/14 02:37:48;;;;;;;8.68;4.85;;;12.00;99.90;;;;;;5046802;28;20487;-74
2021/06/14 02:40:14;;;;;;;8.88;5.13;;;11.80;99.90;;;;;;5047472;28;20498;-74
2021/06/14 02:42:42;;;;;;;7.97;4.80;;;11.70;99.90;;;;;;5054144;28;20025;-74
2021/06/14 02:45:08;;;;;;;7.07;4.88;;;11.80;99.90;;;;;;5029597;28;20045;-75
2021/06/14 02:47:35;;;;;;;7.63;5.10;;;11.80;99.90;;;;;;5032764;28;20056;-74
2021/06/14 02:50:05;;;;;;;9.73;4.75;;;11.90;99.90;;;;;;5054062;28;20032;-75
2021/06/14 02:52:33;;;;;;;9.45;5.07;;;12.00;99.90;;;;;;5046085;28;20488;-74
2021/06/14 02:55:04;;;;;;;8.43;5.32;;;11.90;99.90;;;;;;5042825;28;20490;-74
2021/06/14 02:57:32;;;;;;;6.97;5.30;;;11.70;99.90;;;;;;5050744;28;20052;-74
2021/06/14 02:59:58;;;;;;;9.18;5.35;;;11.50;99.90;;;;;;5051506;28;20074;-74
2021/06/14 03:02:25;;;;;;;6.28;4.93;;;11.40;99.90;;;;;;5045760;28;20528;-74
2021/06/14 03:04:51;;;;;;;7.57;4.80;;;11.30;99.90;;;;;;5048546;28;20103;-76
2021/06/14 03:07:21;;;;;;;9.10;5.45;;;11.40;99.90;;;;;;5046520;28;20024;-76
2021/06/14 03:09:48;;;;;;;7.75;4.72;;;11.50;99.90;;;;;;5053506;28;20045;-75
2021/06/14 03:12:14;;;;;;;7.63;5.00;;;11.60;99.90;;;;;;5040946;28;20119;-76
2021/06/14 03:14:40;;;;;;;6.78;5.20;;;11.50;99.90;;;;;;5018864;28;20130;-76
2021/06/14 03:17:06;;;;;;;7.55;4.93;;;11.60;99.90;;;;;;5023276;28;20025;-75
2021/06/14 03:19:34;;;;;;;9.68;5.45;;;11.50;99.90;;;;;;5033701;28;20040;-76
2021/06/14 03:22:03;;;;;;;8.38;4.90;;;11.60;99.90;;;;;;5033911;28;20018;-75
2021/06/14 03:24:29;;;;;;;8.10;4.57;;;11.70;99.90;;;;;;5028985;28;20026;-76
2021/06/14 03:26:56;;;;;;;9.43;5.30;;;11.70;99.90;;;;;;5029492;28;20017;-76
2021/06/14 03:29:24;;;;;;;8.05;5.10;;;11.80;99.90;;;;;;5028554;28;20056;-76
2021/06/14 03:31:50;;;;;;;8.60;5.53;;;11.90;99.90;;;;;;5046915;28;20361;-76
2021/06/14 03:34:18;;;;;;;7.40;5.30;;;11.90;99.90;;;;;;5041395;28;20388;-76
2021/06/14 03:36:45;;;;;;;9.20;4.40;;;11.90;99.90;;;;;;5038787;28;20096;-76
2021/06/14 03:39:13;;;;;;;8.68;4.95;;;11.90;99.90;;;;;;5041103;28;20071;-76
2021/06/14 03:41:47;;;;;;;7.85;4.68;;;12.00;99.90;;;;;;5040123;28;20029;-76
2021/06/14 03:44:14;;;;;;;8.80;4.63;;;12.10;99.90;;;;;;5043460;28;20032;-76
2021/06/14 03:46:40;;;;;;;7.90;4.97;;;12.10;99.90;;;;;;5033386;28;20479;-76
2021/06/14 03:49:06;;;;;;;10.00;5.88;;;12.00;99.90;;;;;;5043302;28;20025;-76
2021/06/14 03:51:32;;;;;;;10.73;5.45;;;12.20;99.90;;;;;;5039718;28;20372;-76
2021/06/14 03:53:59;;;;;;;6.55;4.85;;;12.20;99.90;;;;;;5043461;28;20152;-77
2021/06/14 03:56:30;;;;;;;7.88;4.97;;;12.20;99.90;;;;;;5037548;28;20048;-76
2021/06/14 03:58:56;;;;;;;9.07;5.30;;;12.10;99.90;;;;;;5025043;28;20033;-77
2021/06/14 04:01:22;;;;;;;10.75;5.57;;;12.10;99.90;;;;;;5028477;28;20037;-77
2021/06/14 04:06:26;;;;;;;8.38;5.53;;;11.30;99.90;;;;;;5038137;28;20025;-76
2021/06/14 04:08:51;;;;;;;7.45;5.95;;;11.10;99.90;;;;;;5041457;28;20399;-75
2021/06/14 04:11:17;;;;;;;8.27;5.90;;;11.00;99.90;;;;;;5046359;28;20395;-75
2021/06/14 04:13:43;;;;;;;7.15;5.80;;;10.80;99.90;;;;;;5032886;28;20026;-76
2021/06/14 04:16:09;;;;;;;12.27;5.80;;;10.90;99.90;;;;;;5033003;28;20014;-76
2021/06/14 04:18:35;;;;;;;8.35;5.50;;;11.20;99.90;;;;;;5044260;28;20032;-76
2021/06/14 04:21:00;;;;;;;10.15;5.40;;;11.50;99.90;;;;;;5021598;28;20021;-74
2021/06/14 04:23:26;;;;;;;9.10;5.28;;;11.80;99.90;;;;;;5041783;28;20083;-75
2021/06/14 04:25:51;;;;;;;8.23;5.60;;;11.60;99.90;;;;;;5046231;28;20092;-75
2021/06/14 04:28:17;;;;;;;7.70;5.45;;;11.10;99.90;;;;;;5025706;28;20071;-74
2021/06/14 04:30:42;;;;;;;7.57;5.45;;;10.80;99.90;;;;;;5038882;28;20021;-75
2021/06/14 04:33:08;;;;;;;9.23;5.32;;;11.10;99.90;;;;;;5024052;28;20434;-75
2021/06/14 04:35:33;;;;;;;9.30;5.32;;;11.70;99.90;;;;;;5045848;28;20022;-75
2021/06/14 04:37:59;;;;;;;9.93;5.30;;;12.20;99.90;;;;;;5042915;28;20025;-76
2021/06/14 04:40:24;;;;;;;10.77;5.13;;;12.40;99.90;;;;;;5038800;28;20033;-73
2021/06/14 04:42:50;;;;;;;7.65;5.13;;;12.30;99.90;;;;;;5041924;28;20028;-73
2021/06/14 04:45:16;;;;;;;9.75;5.03;;;11.90;99.90;;;;;;5049241;28;20079;-73
2021/06/14 04:47:41;;;;;;;7.90;5.05;;;12.00;99.90;;;;;;5042227;28;20159;-74
2021/06/14 04:50:08;;;;;;;8.60;5.57;;;12.40;99.90;;;;;;5045311;28;20395;-74
2021/06/14 04:52:33;;;;;;;11.30;5.93;;;12.50;99.90;;;;;;5032232;28;20476;-74
2021/06/14 04:54:58;;;;;;;8.05;5.03;;;12.40;99.90;;;;;;5044542;28;20028;-73
2021/06/14 04:57:25;;;;;;;8.57;5.05;;;12.50;99.90;;;;;;5025531;28;20025;-73
2021/06/14 04:59:51;;;;;;;9.30;5.13;;;13.00;99.90;;;;;;5020840;28;20154;-73
2021/06/14 05:02:17;;;;;;;8.05;4.82;;;13.30;99.90;;;;;;5022862;28;20104;-71
2021/06/14 05:04:42;;;;;;;6.63;5.45;;;13.40;99.90;;;;;;5031811;28;20108;-71
2021/06/14 05:07:08;;;;;;;7.95;4.63;;;13.60;99.90;;;;;;5031960;28;20036;-71
2021/06/14 05:09:34;;;;;;;10.38;5.22;;;13.80;99.90;;;;;;5027325;28;20049;-74
2021/06/14 05:11:59;;;;;;;8.88;5.35;;;13.80;99.90;;;;;;5042589;28;20033;-74
2021/06/14 05:14:25;;;;;;;7.85;5.05;;;13.20;99.90;;;;;;5037973;28;20029;-74
2021/06/14 05:16:50;;;;;;;9.13;5.65;;;13.30;99.90;;;;;;5041462;28;20108;-74
2021/06/14 05:19:16;;;;;;;8.50;5.63;;;13.40;99.90;;;;;;5048693;28;20036;-74
2021/06/14 05:21:41;;;;;;;9.88;5.40;;;13.70;99.90;;;;;;5041278;28;20480;-74
2021/06/14 05:24:07;;;;;;;9.85;5.00;;;13.70;99.90;;;;;;5027340;28;20029;-74
2021/06/14 05:26:33;;;;;;;7.72;4.63;;;14.00;99.90;;;;;;5024296;28;20079;-74
2021/06/14 05:28:58;;;;;;;7.55;4.47;;;14.20;99.90;;;;;;5038542;28;20052;-74
2021/06/14 05:31:24;;;;;;;10.65;5.10;;;14.20;99.90;;;;;;5024629;28;20109;-74
2021/06/14 05:33:49;;;;;;;11.57;5.22;;;14.30;99.90;;;;;;5048364;28;20048;-74
2021/06/14 05:36:15;;;;;;;9.05;5.22;;;14.40;99.90;;;;;;5041746;28;20032;-74
2021/06/14 05:38:41;;;;;;;8.23;4.32;;;14.50;99.90;;;;;;5045038;28;20034;-74
2021/06/14 05:41:06;;;;;;;7.63;4.97;;;14.40;99.90;;;;;;5031519;28;20387;-74
2021/06/14 05:43:32;;;;;;;7.95;4.80;;;14.40;99.90;;;;;;5034620;28;20402;-74
2021/06/14 05:45:57;;;;;;;11.35;4.90;;;14.70;99.90;;;;;;5042138;28;20105;-74
2021/06/14 05:48:23;;;;;;;11.55;4.90;;;14.90;99.90;;;;;;5043883;28;20064;-74
2021/06/14 05:50:49;;;;;;;10.63;5.15;;;14.90;99.90;;;;;;5039501;28;20036;-74
2021/06/14 05:53:15;;;;;;;7.65;4.88;;;14.90;99.90;;;;;;5038091;28;20029;-74
2021/06/14 05:55:40;;;;;;;6.40;4.40;;;15.00;99.90;;;;;;5021306;28;20395;-74
2021/06/14 05:58:06;;;;;;;6.30;4.07;;;15.10;99.90;;;;;;5047927;28;20090;-73
2021/06/14 06:00:31;;;;;;;7.18;4.10;;;15.30;99.90;;;;;;5041708;28;20041;-73
2021/06/14 06:02:57;;;;;;;8.52;4.20;;;15.40;99.90;;;;;;5035296;28;20030;-73
2021/06/14 06:05:23;;;;;;;8.15;4.40;;;15.50;99.90;;;;;;5035380;28;20029;-73
2021/06/14 06:07:49;;;;;;;9.48;4.85;;;15.60;99.90;;;;;;5009496;28;20024;-73
2021/06/14 06:10:15;;;;;;;7.85;4.57;;;15.50;99.90;;;;;;5044350;28;20036;-73
2021/06/14 06:12:41;;;;;;;8.80;4.70;;;15.60;99.90;;;;;;5048825;28;20100;-73
2021/06/14 06:15:10;;;;;;;8.32;4.40;;;15.60;99.90;;;;;;5024107;28;20041;-73
2021/06/14 06:17:36;;;;;;;6.03;4.28;;;15.50;99.90;;;;;;5038671;28;20449;-73
2021/06/14 06:20:06;;;;;;;7.70;4.05;;;15.70;99.90;;;;;;5044631;28;20065;-73
2021/06/14 06:22:31;;;;;;;5.85;4.03;;;16.00;99.90;;;;;;5048559;28;20415;-73
2021/06/14 06:24:57;;;;;;;8.50;4.40;;;16.20;99.90;;;;;;5045648;28;20029;-73
2021/06/14 06:27:22;;;;;;;7.93;4.55;;;16.40;99.90;;;;;;5037624;28;20041;-73
2021/06/14 06:29:48;;;;;;;7.55;4.35;;;16.20;99.90;;;;;;5034732;28;20057;-73
2021/06/14 06:32:13;;;;;;;7.95;4.53;;;16.10;99.90;;;;;;5048181;28;20045;-73
2021/06/14 06:34:39;;;;;;;5.80;4.32;;;16.10;99.90;;;;;;5034804;28;20033;-74
2021/06/14 06:37:05;;;;;;;7.75;4.65;;;16.00;99.90;;;;;;5048393;28;20407;-73
2021/06/14 06:39:30;;;;;;;8.32;4.57;;;16.10;99.90;;;;;;5045057;28;20025;-73
2021/06/14 06:41:58;;;;;;;6.15;4.18;;;16.10;99.90;;;;;;5041137;28;20029;-73
2021/06/14 06:44:24;;;;;;;9.50;4.85;;;16.20;99.90;;;;;;5043911;28;20442;-73
2021/06/14 06:46:49;;;;;;;7.80;4.57;;;16.20;99.90;;;;;;5034522;28;20032;-73
2021/06/14 06:49:16;;;;;;;8.55;4.65;;;16.30;99.90;;;;;;5034449;28;20119;-73
2021/06/14 06:51:41;;;;;;;7.03;4.65;;;16.30;99.90;;;;;;5038171;28;20521;-74
2021/06/14 06:54:13;;;;;;;6.65;4.18;;;16.30;99.90;;;;;;5054409;28;20025;-73
2021/06/14 06:56:42;;;;;;;9.95;4.22;;;16.50;99.90;;;;;;5054420;28;20025;-73
2021/06/14 06:59:08;;;;;;;7.85;4.40;;;16.70;99.90;;;;;;5054474;28;20017;-74
2021/06/14 07:01:33;;;;;;;8.32;4.25;;;16.80;99.90;;;;;;5040857;28;20043;-75
2021/06/14 07:03:59;;;;;;;8.65;4.28;;;16.90;99.90;;;;;;5024658;28;20030;-74
2021/06/14 07:06:24;;;;;;;8.88;4.35;;;16.70;99.90;;;;;;5034165;28;20029;-74
2021/06/14 07:08:50;;;;;;;7.47;4.05;;;16.50;99.90;;;;;;5028128;28;20048;-74
2021/06/14 07:11:15;;;;;;;6.70;4.10;;;16.70;99.90;;;;;;5040406;28;20032;-74
2021/06/14 07:13:41;;;;;;;8.50;4.40;;;16.80;99.90;;;;;;5023415;28;20035;-74
2021/06/14 07:16:06;;;;;;;8.18;3.88;;;17.00;99.90;;;;;;5038748;28;20646;-74
2021/06/14 07:18:32;;;;;;;6.13;4.28;;;17.20;99.90;;;;;;5042726;28;20033;-74
2021/06/14 07:20:59;;;;;;;6.47;4.00;;;17.60;99.90;;;;;;5047238;28;20027;-74
2021/06/14 07:23:25;;;;;;;9.90;4.20;;;17.70;99.90;;;;;;5024236;28;20029;-75
2021/06/14 07:25:50;;;;;;;8.95;4.38;;;18.10;99.90;;;;;;5033969;28;20494;-74
2021/06/14 07:28:16;;;;;;;8.50;4.13;;;17.80;99.90;;;;;;5045426;28;20035;-74
2021/06/14 07:30:42;;;;;;;6.85;3.95;;;17.60;99.90;;;;;;5022336;28;20443;-76
2021/06/14 07:33:07;;;;;;;8.85;3.80;;;17.50;99.90;;;;;;5024611;28;20026;-74
2021/06/14 07:35:35;;;;;;;7.63;3.88;;;18.00;99.90;;;;;;5046878;28;20026;-74
2021/06/14 07:38:01;;;;;;;6.70;4.07;;;18.20;99.90;;;;;;5027732;28;20021;-74
2021/06/14 07:40:28;;;;;;;8.52;3.95;;;18.40;99.90;;;;;;5034816;28;20048;-74
2021/06/14 07:42:53;;;;;;;7.65;4.28;;;18.60;99.90;;;;;;5033629;28;20083;-74
2021/06/14 07:45:24;;;;;;;8.48;4.20;;;18.60;99.90;;;;;;5047020;28;20022;-75
2021/06/14 07:47:50;;;;;;;6.60;3.92;;;18.70;99.90;;;;;;5016014;28;20056;-74
2021/06/14 07:50:16;;;;;;;6.57;4.00;;;18.90;99.90;;;;;;5046735;28;20033;-74
2021/06/14 07:52:42;;;;;;;7.60;3.80;;;19.10;99.90;;;;;;5024887;28;20674;-74
2021/06/14 07:55:09;;;;;;;9.02;4.43;;;19.10;99.90;;;;;;5026291;28;20040;-74
2021/06/14 07:57:34;;;;;;;6.38;3.67;;;19.20;99.90;;;;;;5020846;28;20021;-74
2021/06/14 08:00:00;;;;;;;10.02;3.95;;;19.00;99.90;;;;;;5021895;28;20031;-75
2021/06/14 08:02:25;;;;;;;7.28;4.03;;;19.20;99.90;;;;;;5040587;28;20033;-74
2021/06/14 08:04:51;;;;;;;5.88;3.97;;;19.00;99.90;;;;;;5046620;28;20037;-74
2021/06/14 08:07:16;;;;;;;7.40;4.18;;;18.90;99.90;;;;;;5045702;28;20025;-75
2021/06/14 08:09:43;;;;;;;5.82;4.00;;;18.70;99.90;;;;;;5039561;28;20036;-74
2021/06/14 08:12:09;;;;;;;8.75;4.28;;;18.90;99.90;;;;;;5040340;28;20071;-75
2021/06/14 08:14:35;;;;;;;6.55;4.20;;;19.30;99.90;;;;;;5028205;28;20554;-75
2021/06/14 08:17:02;;;;;;;6.57;3.60;;;19.40;99.90;;;;;;5027569;28;20396;-71
2021/06/14 08:25:02;;;;;;;6.30;3.80;;;19.40;99.90;;;;;;5014719;28;20036;-75
2021/06/14 08:25:20;;;;;;;7.25;3.92;;;19.70;99.90;;;;;;5038700;28;20079;-74
2021/06/14 08:27:46;;;;;;;7.18;3.97;;;19.80;99.90;;;;;;5045467;28;20037;-74
2021/06/14 08:30:16;;;;;;;7.40;3.75;;;19.80;99.90;;;;;;5028051;28;20036;-74
2021/06/14 08:32:42;;;;;;;8.18;4.15;;;19.80;99.90;;;;;;5040555;28;20025;-73
2021/06/14 08:35:13;;;;;;;7.13;3.83;;;19.70;99.90;;;;;;5039077;28;20583;-74
2021/06/14 08:37:40;;;;;;;6.25;3.47;;;19.70;99.90;;;;;;5044397;28;20036;-74
2021/06/14 08:40:06;;;;;;;8.10;3.80;;;19.90;99.90;;;;;;5034839;28;20026;-75
2021/06/14 08:42:32;;;;;;;7.78;3.75;;;19.80;99.90;;;;;;5026539;28;20087;-74
2021/06/14 08:44:58;;;;;;;5.35;3.95;;;19.80;99.90;;;;;;5045726;28;20469;-75
2021/06/14 08:47:24;;;;;;;7.03;3.78;;;20.00;99.90;;;;;;5032422;28;20037;-73
2021/06/14 08:49:50;;;;;;;5.53;3.65;;;20.10;99.90;;;;;;5019346;28;20485;-74
2021/06/14 08:52:16;;;;;;;12.13;4.15;;;20.30;99.90;;;;;;5032364;28;20419;-73
2021/06/14 08:54:43;;;;;;;9.68;4.47;;;20.40;99.90;;;;;;5043881;28;20022;-74
2021/06/14 08:57:13;;;;;;;8.90;3.90;;;20.50;99.90;;;;;;5041122;28;20475;-74
2021/06/14 08:59:40;;;;;;;8.38;3.90;;;20.20;99.90;;;;;;5017962;28;20033;-74
2021/06/14 09:02:05;;;;;;;7.53;4.40;;;20.30;99.90;;;;;;5032139;28;20036;-73
2021/06/14 09:04:32;;;;;;;9.75;4.18;;;20.40;99.90;;;;;;5034857;28;20029;-73
2021/06/14 09:06:58;;;;;;;7.25;4.00;;;20.60;99.90;;;;;;5042328;28;20090;-73
2021/06/14 09:09:30;;;;;;;6.22;3.65;;;20.60;99.90;;;;;;5027493;28;20029;-74
2021/06/14 09:11:59;;;;;;;5.68;3.40;;;20.30;99.90;;;;;;5032023;28;20064;-74
2021/06/14 09:14:28;;;;;;;7.32;3.70;;;20.30;99.90;;;;;;5031759;28;20040;-74
2021/06/14 09:17:01;;;;;;;6.22;3.72;;;20.30;99.90;;;;;;5043443;28;20100;-74
2021/06/14 09:19:38;;;;;;;4.63;3.50;;;20.70;99.90;;;;;;5020565;28;20033;-74
2021/06/14 09:22:18;;;;;;;7.95;3.60;;;20.90;99.90;;;;;;5038297;28;20056;-74
2021/06/14 09:24:56;;;;;;;6.90;3.40;;;20.80;99.90;;;;;;5042886;28;20032;-74
2021/06/14 09:27:30;;;;;;;7.72;3.95;;;21.10;99.90;;;;;;5031769;28;20108;-74
2021/06/14 09:29:56;;;;;;;7.90;3.60;;;21.10;99.90;;;;;;5022020;28;20034;-74
2021/06/14 09:32:22;;;;;;;6.85;3.38;;;21.20;99.90;;;;;;5036629;28;20052;-73
2021/06/14 09:34:53;;;;;;;9.25;3.53;;;21.10;99.90;;;;;;5040019;28;20100;-73
2021/06/14 09:37:19;;;;;;;9.73;3.63;;;21.30;99.90;;;;;;5044597;28;20080;-74
2021/06/14 09:39:47;;;;;;;6.57;3.78;;;21.10;99.90;;;;;;5043685;28;20029;-74
2021/06/14 09:42:22;;;;;;;7.53;3.55;;;21.30;99.90;;;;;;5038152;28;20033;-74
2021/06/14 09:44:51;;;;;;;8.50;3.75;;;21.20;99.90;;;;;;5038072;28;20030;-74
2021/06/14 09:47:17;;;;;;;6.35;3.33;;;21.50;99.90;;;;;;5031745;28;20562;-74
2021/06/14 09:50:07;;;;;;;7.25;3.60;;;21.70;99.90;;;;;;5044612;28;20060;-74
2021/06/14 09:52:33;;;;;;;5.38;3.30;;;21.90;99.90;;;;;;5042117;28;20082;-74
2021/06/14 09:55:28;;;;;;;7.00;3.50;;;21.40;99.90;;;;;;5032708;28;20021;-74
2021/06/14 09:57:54;;;;;;;7.22;3.92;;;21.10;99.90;;;;;;5043231;28;20386;-74
2021/06/14 10:00:21;;;;;;;6.00;3.88;;;21.60;99.90;;;;;;5039411;28;20033;-73
2021/06/14 10:02:46;;;;;;;6.00;3.70;;;21.40;99.90;;;;;;5020453;28;20509;-73
2021/06/14 10:05:18;;;;;;;5.85;3.50;;;21.40;99.90;;;;;;5043023;28;20499;-74
2021/06/14 10:07:46;;;;;;;5.78;3.25;;;21.50;99.90;;;;;;5047139;28;20025;-74
2021/06/14 10:10:18;;;;;;;7.13;3.22;;;22.10;99.90;;;;;;5041954;28;20137;-74
2021/06/14 10:12:49;;;;;;;7.22;3.47;;;22.10;99.90;;;;;;5044826;28;20026;-74
2021/06/14 10:15:16;;;;;;;5.93;3.15;;;22.40;99.90;;;;;;5041908;28;20047;-74
2021/06/14 10:17:42;;;;;;;5.80;3.63;;;22.30;99.90;;;;;;5037871;28;20021;-74
2021/06/14 10:20:36;;;;;;;5.55;3.60;;;22.10;99.90;;;;;;5040515;28;20028;-74
2021/06/14 10:23:03;;;;;;;6.75;3.80;;;22.30;99.90;;;;;;5020032;28;20040;-74
2021/06/14 10:25:29;;;;;;;5.57;3.85;;;22.20;99.90;;;;;;5020096;28;20026;-74
2021/06/14 10:27:54;;;;;;;5.63;3.38;;;22.00;99.90;;;;;;5043128;28;20033;-75
2021/06/14 10:30:23;;;;;;;6.13;3.42;;;22.20;99.90;;;;;;5044420;28;20025;-75
2021/06/14 10:32:49;;;;;;;5.95;3.58;;;22.60;99.90;;;;;;5039707;28;20480;-74
2021/06/14 10:35:18;;;;;;;6.40;3.33;;;22.90;99.90;;;;;;5019885;28;20076;-74
2021/06/14 10:37:50;;;;;;;5.80;3.15;;;23.10;99.90;;;;;;5042134;28;20022;-74
2021/06/14 10:40:26;;;;;;;5.45;3.40;;;22.90;99.90;;;;;;5044243;28;20036;-74
2021/06/14 10:42:52;;;;;;;6.03;3.60;;;22.80;99.00;;;;;;5042359;28;20032;-74
2021/06/14 10:45:22;;;;;;;5.00;3.20;;;22.40;99.70;;;;;;5037507;28;20041;-74
2021/06/14 10:47:48;;;;;;;6.15;3.60;;;22.10;99.90;;;;;;5041468;28;20059;-75
2021/06/14 10:50:19;;;;;;;5.30;3.08;;;22.50;99.90;;;;;;5047916;28;20029;-75
2021/06/14 10:52:47;;;;;;;7.00;3.30;;;22.40;99.90;;;;;;5046705;28;20529;-74
2021/06/14 10:55:18;;;;;;;6.88;3.78;;;22.30;99.50;;;;;;5027693;28;20033;-74
2021/06/14 10:57:44;;;;;;;4.45;3.22;;;22.50;99.90;;;;;;5028896;28;20030;-74
2021/06/14 11:00:26;;;;;;;5.20;3.47;;;22.80;99.90;;;;;;5047028;28;20510;-75
2021/06/14 11:02:52;;;;;;;7.75;3.78;;;23.00;99.90;;;;;;5047792;28;20067;-74
2021/06/14 11:05:31;;;;;;;5.03;3.20;;;22.90;99.90;;;;;;5034367;28;20053;-75
2021/06/14 11:07:56;;;;;;;7.38;3.42;;;22.70;99.80;;;;;;5022863;28;20116;-74
2021/06/14 11:10:27;;;;;;;5.43;3.92;;;22.50;99.90;;;;;;5043245;28;20113;-74
2021/06/14 11:13:11;;;;;;;5.20;3.40;;;22.50;99.90;;;;;;5047577;28;20024;-75
2021/06/14 11:15:40;;;;;;;5.97;3.65;;;22.80;99.90;;;;;;5029466;28;20037;-74
2021/06/14 11:18:06;;;;;;;7.95;3.60;;;23.10;99.90;;;;;;5041530;28;20027;-75
2021/06/14 11:20:38;;;;;;;5.88;3.15;;;23.60;99.90;;;;;;5040313;28;20017;-76
2021/06/14 11:23:05;;;;;;;7.53;3.33;;;23.60;99.90;;;;;;5045807;28;20030;-75
2021/06/14 11:25:42;;;;;;;5.38;3.33;;;22.80;99.90;;;;;;5035333;28;20033;-75
2021/06/14 11:28:10;;;;;;;7.25;3.72;;;23.10;99.20;;;;;;5027516;28;20025;-75
2021/06/14 11:30:49;;;;;;;6.95;3.30;;;23.50;99.30;;;;;;5033660;28;20021;-75
2021/06/14 11:33:25;;;;;;;6.15;3.58;;;23.60;99.00;;;;;;5033925;28;20021;-75
2021/06/14 11:35:50;;;;;;;5.82;3.45;;;23.50;99.00;;;;;;5047293;28;20527;-74
2021/06/14 11:38:19;;;;;;;8.68;3.80;;;23.60;98.20;;;;;;5046180;28;20065;-75
2021/06/14 11:40:54;;;;;;;5.88;3.40;;;23.40;99.60;;;;;;5039988;28;20025;-75
2021/06/14 11:43:20;;;;;;;6.18;3.47;;;23.40;99.90;;;;;;5040459;28;20060;-74
2021/06/14 11:45:48;;;;;;;6.43;3.30;;;23.70;97.90;;;;;;5046026;28;20038;-75
2021/06/14 11:48:21;;;;;;;7.60;3.58;;;24.00;99.90;;;;;;5029177;28;20059;-75
2021/06/14 11:50:48;;;;;;;5.25;3.60;;;24.60;99.90;;;;;;5041838;28;20025;-74
2021/06/14 11:53:13;;;;;;;5.38;3.38;;;24.40;99.90;;;;;;5020330;28;20033;-74
2021/06/14 11:55:41;;;;;;;8.88;3.28;;;24.70;99.40;;;;;;5022028;28;20026;-75
2021/06/14 11:58:09;;;;;;;5.13;3.22;;;25.20;97.80;;;;;;5029753;28;20028;-75
2021/06/14 12:00:43;;;;;;;4.25;3.17;;;25.50;97.60;;;;;;5024663;28;20026;-75
2021/06/14 12:03:24;;;;;;;6.45;3.40;;;25.50;97.30;;;;;;5046855;28;20025;-75
2021/06/14 12:05:54;;;;;;;5.22;3.40;;;25.00;97.00;;;;;;5028609;28;20028;-75
2021/06/14 12:08:27;;;;;;;7.40;3.13;;;24.60;97.60;;;;;;5026730;28;20040;-74
2021/06/14 12:10:56;;;;;;;5.47;3.10;;;24.70;95.00;;;;;;5039262;28;20036;-74
2021/06/14 12:13:24;;;;;;;4.78;2.95;;;25.10;96.00;;;;;;5027520;28;20477;-74
2021/06/14 12:15:51;;;;;;;5.50;3.50;;;24.90;94.90;;;;;;5046106;28;20104;-74
2021/06/14 12:18:18;;;;;;;6.38;3.38;;;25.00;94.20;;;;;;5023772;28;20579;-75
2021/06/14 12:20:50;;;;;;;6.03;3.30;;;25.20;96.40;;;;;;5039260;28;20033;-74
2021/06/14 12:23:16;;;;;;;4.28;3.08;;;25.70;98.60;;;;;;5043372;28;20049;-73
2021/06/14 12:25:45;;;;;;;6.00;3.70;;;25.50;96.10;;;;;;5046007;28;20071;-74
2021/06/14 12:28:13;;;;;;;6.32;2.97;;;25.70;95.90;;;;;;5042886;28;20033;-74
2021/06/14 12:30:41;;;;;;;6.00;3.33;;;25.40;95.00;;;;;;5021407;28;20161;-74
2021/06/14 12:33:07;;;;;;;4.47;3.45;;;25.30;96.40;;;;;;5041735;28;20017;-74
2021/06/14 12:35:33;;;;;;;4.85;3.30;;;25.50;94.00;;;;;;5028090;28;20042;-74
2021/06/14 12:38:07;;;;;;;4.75;3.22;;;26.10;96.50;;;;;;5032560;28;20033;-74
2021/06/14 12:40:35;;;;;;;6.18;3.35;;;25.80;93.40;;;;;;5021189;28;20124;-74
2021/06/14 12:43:04;;;;;;;4.63;3.40;;;25.10;94.20;;;;;;5040577;28;20022;-74
2021/06/14 12:45:30;;;;;;;5.55;3.45;;;25.80;95.10;;;;;;5027778;28;20510;-75
2021/06/14 12:48:03;;;;;;;4.65;3.28;;;26.40;93.30;;;;;;5044601;28;20029;-74
2021/06/14 12:50:31;;;;;;;5.47;3.35;;;26.10;91.30;;;;;;5020849;28;20454;-74
2021/06/14 12:52:59;;;;;;;4.88;3.35;;;26.50;92.20;;;;;;5021061;28;20020;-74
2021/06/14 12:55:26;;;;;;;6.40;3.70;;;27.00;92.60;;;;;;5051882;28;20502;-75